createdAt,value
2018-10-05T00:00:32.594Z,75.72
2018-10-05T00:03:01.773Z,75.69
2018-10-05T00:05:30.366Z,75.61
2018-10-05T00:07:58.983Z,75.60
2018-10-05T00:10:27.528Z,75.60
2018-10-05T00:12:56.283Z,75.89
2018-10-05T00:15:24.774Z,75.55
2018-10-05T00:17:53.407Z,75.86
2018-10-05T00:20:22.096Z,75.76
2018-10-05T00:22:50.768Z,75.50
2018-10-05T00:25:19.440Z,75.79
2018-10-05T00:27:48.136Z,75.82
2018-10-05T00:30:16.807Z,75.71
2018-10-05T00:32:45.464Z,75.68
2018-10-05T00:35:14.181Z,75.48
2018-10-05T00:37:42.748Z,75.35
2018-10-05T00:40:11.290Z,75.24
2018-10-05T00:42:39.896Z,75.10
2018-10-05T00:45:08.487Z,74.95
2018-10-05T00:47:37.311Z,75.22
2018-10-05T00:50:05.945Z,75.03
2018-10-05T00:52:34.553Z,74.81
2018-10-05T00:55:03.381Z,74.75
2018-10-05T00:57:32.034Z,74.51
2018-10-05T01:00:00.627Z,74.31
2018-10-05T01:02:29.254Z,74.32
2018-10-05T01:04:57.780Z,74.27
2018-10-05T01:07:26.464Z,74.34
2018-10-05T01:09:55.101Z,74.63
2018-10-05T01:12:23.724Z,74.70
2018-10-05T01:14:52.453Z,74.49
2018-10-05T01:17:21.099Z,74.57
2018-10-05T01:19:49.704Z,75.38
2018-10-05T01:22:18.530Z,75.08
2018-10-05T01:24:48.165Z,75.17
2018-10-05T01:27:16.805Z,75.47
2018-10-05T01:29:45.441Z,75.56
2018-10-05T01:32:13.965Z,75.89
2018-10-05T01:34:42.633Z,75.86
2018-10-05T01:37:11.222Z,75.82
2018-10-05T01:39:39.949Z,76.07
2018-10-05T01:42:08.666Z,76.21
2018-10-05T01:44:37.316Z,76.34
2018-10-05T01:47:05.908Z,76.16
2018-10-05T01:49:34.601Z,76.19
2018-10-05T01:52:04.048Z,76.40
2018-10-05T01:54:32.723Z,76.64
2018-10-05T01:57:01.887Z,76.60
2018-10-05T01:59:30.462Z,76.76
2018-10-05T02:01:59.166Z,77.02
2018-10-05T02:04:27.749Z,77.11
2018-10-05T02:06:56.314Z,77.38
2018-10-05T02:09:24.968Z,76.92
2018-10-05T02:11:53.621Z,76.90
2018-10-05T02:14:22.128Z,76.95
2018-10-05T02:16:50.893Z,76.87
2018-10-05T02:19:19.469Z,77.03
2018-10-05T02:21:48.116Z,76.77
2018-10-05T02:24:16.827Z,76.65
2018-10-05T02:26:46.507Z,76.78
2018-10-05T02:29:15.167Z,76.76
2018-10-05T02:31:43.837Z,76.88
2018-10-05T02:34:12.388Z,76.89
2018-10-05T02:36:41.090Z,76.85
2018-10-05T02:39:11.840Z,76.64
2018-10-05T02:41:40.666Z,76.31
2018-10-05T02:44:09.197Z,76.69
2018-10-05T02:46:37.807Z,76.53
2018-10-05T02:49:06.765Z,76.53
2018-10-05T02:51:35.505Z,76.44
2018-10-05T02:54:04.285Z,76.55
2018-10-05T02:56:33.058Z,76.58
2018-10-05T02:59:01.767Z,76.38
2018-10-05T03:01:41.469Z,76.45
2018-10-05T03:04:10.067Z,76.49
2018-10-05T03:06:38.816Z,76.23
2018-10-05T03:09:07.471Z,76.50
2018-10-05T03:11:36.200Z,76.13
2018-10-05T03:14:04.844Z,76.00
2018-10-05T03:16:33.541Z,76.15
2018-10-05T03:19:03.287Z,76.62
2018-10-05T03:21:31.866Z,76.27
2018-10-05T03:24:00.496Z,76.23
2018-10-05T03:26:29.441Z,76.27
2018-10-05T03:28:58.127Z,75.85
2018-10-05T03:31:26.763Z,75.51
2018-10-05T03:33:55.460Z,75.74
2018-10-05T03:36:24.096Z,75.52
2018-10-05T03:38:52.961Z,75.37
2018-10-05T03:41:21.659Z,75.14
2018-10-05T03:43:50.381Z,75.19
2018-10-05T03:46:18.924Z,75.14
2018-10-05T03:48:47.480Z,75.27
2018-10-05T03:51:16.047Z,75.00
2018-10-05T03:53:44.600Z,75.04
2018-10-05T03:56:13.374Z,75.30
2018-10-05T03:58:42.278Z,75.31
2018-10-05T04:01:10.870Z,75.40
2018-10-05T04:03:39.465Z,75.45
2018-10-05T04:06:08.093Z,75.56
2018-10-05T04:08:38.374Z,75.81
2018-10-05T04:11:07.225Z,75.62
2018-10-05T04:13:36.083Z,75.94
2018-10-05T04:16:04.821Z,75.98
2018-10-05T04:18:33.313Z,75.92
2018-10-05T04:21:02.099Z,75.96
2018-10-05T04:23:30.656Z,76.28
2018-10-05T04:25:59.239Z,76.11
2018-10-05T04:28:27.840Z,76.13
2018-10-05T04:30:56.526Z,75.91
2018-10-05T04:33:25.101Z,76.24
2018-10-05T04:35:53.727Z,75.93
2018-10-05T04:38:22.420Z,76.08
2018-10-05T04:40:51.033Z,76.24
2018-10-05T04:43:19.737Z,76.15
2018-10-05T04:45:48.347Z,76.36
2018-10-05T04:48:16.920Z,76.50
2018-10-05T04:50:45.593Z,76.62
2018-10-05T04:53:14.249Z,76.88
2018-10-05T04:55:42.829Z,76.71
2018-10-05T04:58:11.495Z,76.60
2018-10-05T05:00:40.424Z,76.91
2018-10-05T05:03:09.141Z,76.87
2018-10-05T05:05:37.935Z,77.22
2018-10-05T05:08:06.589Z,77.25
2018-10-05T05:10:35.258Z,77.41
2018-10-05T05:13:04.079Z,77.31
2018-10-05T05:15:32.893Z,77.29
2018-10-05T05:18:01.823Z,77.67
2018-10-05T05:20:30.618Z,77.42
2018-10-05T05:22:59.210Z,77.69
2018-10-05T05:25:27.869Z,77.90
2018-10-05T05:27:56.495Z,77.46
2018-10-05T05:30:25.183Z,77.49
2018-10-05T05:32:53.940Z,77.50
2018-10-05T05:35:22.589Z,77.35
2018-10-05T05:37:51.254Z,77.46
2018-10-05T05:40:19.933Z,77.47
2018-10-05T05:42:48.611Z,77.31
2018-10-05T05:45:17.345Z,77.59
2018-10-05T05:47:46.051Z,77.24
2018-10-05T05:50:15.589Z,77.51
2018-10-05T05:52:44.252Z,77.33
2018-10-05T05:55:12.911Z,77.05
2018-10-05T05:57:41.621Z,77.08
2018-10-05T06:00:10.136Z,77.07
2018-10-05T06:02:38.881Z,77.31
2018-10-05T06:05:08.189Z,77.18
2018-10-05T06:07:36.775Z,77.03
2018-10-05T06:10:05.478Z,76.97
2018-10-05T06:12:34.066Z,76.95
2018-10-05T06:15:02.799Z,76.59
2018-10-05T06:17:31.408Z,75.94
2018-10-05T06:19:59.970Z,76.23
2018-10-05T06:22:28.649Z,75.82
2018-10-05T06:24:57.280Z,76.11
2018-10-05T06:27:26.110Z,76.07
2018-10-05T06:29:54.651Z,75.96
2018-10-05T06:32:23.220Z,76.33
2018-10-05T06:34:51.909Z,76.31
2018-10-05T06:37:20.541Z,75.94
2018-10-05T06:39:49.230Z,76.26
2018-10-05T06:42:17.839Z,76.26
2018-10-05T06:44:46.551Z,76.54
2018-10-05T06:47:15.178Z,76.46
2018-10-05T06:49:43.948Z,76.34
2018-10-05T06:52:12.864Z,76.04
2018-10-05T06:54:41.545Z,76.00
2018-10-05T06:57:10.114Z,75.90
2018-10-05T06:59:38.698Z,75.93
2018-10-05T07:02:07.807Z,75.84
2018-10-05T07:04:36.436Z,75.82
2018-10-05T07:07:05.041Z,75.57
2018-10-05T07:09:33.696Z,75.44
2018-10-05T07:12:03.335Z,75.29
2018-10-05T07:14:31.943Z,74.91
2018-10-05T07:17:00.636Z,74.88
2018-10-05T07:19:29.210Z,74.72
2018-10-05T07:21:57.756Z,74.40
2018-10-05T07:24:26.349Z,74.44
2018-10-05T07:26:55.185Z,73.88
2018-10-05T07:29:23.754Z,74.15
2018-10-05T07:31:52.394Z,74.06
2018-10-05T07:34:21.029Z,73.64
2018-10-05T07:36:49.635Z,74.11
2018-10-05T07:39:18.161Z,73.84
2018-10-05T07:41:46.856Z,73.58
2018-10-05T07:44:15.380Z,73.57
2018-10-05T07:46:44.196Z,73.19
2018-10-05T07:49:12.841Z,73.00
2018-10-05T07:51:41.553Z,72.75
2018-10-05T07:54:10.245Z,72.35
2018-10-05T07:56:38.778Z,72.66
2018-10-05T07:59:07.692Z,72.55
2018-10-05T08:01:36.272Z,71.96
2018-10-05T08:04:04.858Z,72.23
2018-10-05T08:06:33.444Z,72.17
2018-10-05T08:09:02.860Z,71.93
2018-10-05T08:11:31.411Z,71.82
2018-10-05T08:14:00.269Z,71.18
2018-10-05T08:16:28.878Z,71.54
2018-10-05T08:18:57.894Z,71.21
2018-10-05T08:21:26.661Z,70.72
2018-10-05T08:23:55.406Z,70.65
2018-10-05T08:26:24.052Z,70.60
2018-10-05T08:28:52.648Z,70.28
2018-10-05T08:31:21.692Z,70.79
2018-10-05T08:33:50.346Z,70.41
2018-10-05T08:36:19.089Z,69.58
2018-10-05T08:38:47.942Z,69.01
2018-10-05T08:41:16.726Z,69.64
2018-10-05T08:43:45.409Z,69.65
2018-10-05T08:46:14.113Z,68.29
2018-10-05T08:48:42.714Z,68.73
2018-10-05T08:51:11.277Z,67.79
2018-10-05T08:53:40.010Z,68.08
2018-10-05T08:56:08.687Z,67.43
2018-10-05T08:58:37.446Z,67.64
2018-10-05T09:01:06.066Z,67.09
2018-10-05T09:03:34.682Z,67.16
2018-10-05T09:06:04.362Z,66.56
2018-10-05T09:08:32.861Z,66.36
2018-10-05T09:11:02.429Z,66.21
2018-10-05T09:13:31.149Z,66.25
2018-10-05T09:15:59.903Z,66.08
2018-10-05T09:18:28.748Z,65.79
2018-10-05T09:20:57.627Z,65.89
2018-10-05T09:23:26.458Z,65.10
2018-10-05T09:25:55.275Z,64.67
2018-10-05T09:28:23.877Z,64.40
2018-10-05T09:30:52.546Z,64.05
2018-10-05T09:33:21.318Z,64.10
2018-10-05T09:35:56.323Z,63.50
2018-10-05T09:38:24.925Z,63.23
2018-10-05T09:40:54.588Z,62.50
2018-10-05T09:43:23.387Z,63.01
2018-10-05T09:45:52.139Z,62.76
2018-10-05T09:48:20.795Z,61.74
2018-10-05T09:50:49.609Z,61.86
2018-10-05T09:53:18.244Z,61.36
2018-10-05T09:55:46.901Z,62.09
2018-10-05T09:58:15.612Z,61.23
2018-10-05T10:00:49.674Z,60.66
2018-10-05T10:03:35.259Z,59.60
2018-10-05T10:06:04.450Z,59.82
2018-10-05T10:08:33.170Z,59.32
2018-10-05T10:11:01.946Z,58.81
2018-10-05T10:13:30.706Z,58.07
2018-10-05T10:15:59.325Z,57.93
2018-10-05T10:18:28.024Z,58.50
2018-10-05T10:20:56.779Z,56.95
2018-10-05T10:23:25.461Z,56.94
2018-10-05T10:25:54.110Z,56.59
2018-10-05T10:28:23.110Z,56.78
2018-10-05T10:30:51.645Z,57.18
2018-10-05T10:33:20.221Z,56.17
2018-10-05T10:35:48.826Z,55.41
2018-10-05T10:38:17.528Z,55.22
2018-10-05T10:40:46.371Z,54.97
2018-10-05T10:43:15.102Z,55.21
2018-10-05T10:45:43.925Z,55.16
2018-10-05T10:48:12.695Z,55.04
2018-10-05T10:50:41.436Z,54.88
2018-10-05T10:53:10.081Z,53.98
2018-10-05T10:55:38.792Z,54.04
2018-10-05T10:58:07.699Z,53.38
2018-10-05T11:00:37.318Z,54.08
2018-10-05T11:03:06.125Z,53.51
2018-10-05T11:05:34.715Z,52.86
2018-10-05T11:08:03.416Z,53.05
2018-10-05T11:10:32.052Z,52.94
2018-10-05T11:13:01.890Z,52.44
2018-10-05T11:15:31.395Z,52.94
2018-10-05T11:18:00.101Z,52.81
2018-10-05T11:20:28.774Z,51.91
2018-10-05T11:22:57.654Z,52.12
2018-10-05T11:25:26.323Z,51.55
2018-10-05T11:27:54.856Z,51.51
2018-10-05T11:30:23.815Z,51.35
2018-10-05T11:32:52.515Z,51.78
2018-10-05T11:35:21.118Z,51.97
2018-10-05T11:37:49.734Z,51.46
2018-10-05T11:40:18.511Z,51.54
2018-10-05T11:42:47.326Z,51.35
2018-10-05T11:45:16.181Z,49.90
2018-10-05T11:47:44.904Z,50.27
2018-10-05T11:50:13.700Z,51.43
2018-10-05T11:52:42.380Z,51.72
2018-10-05T11:55:11.284Z,50.14
2018-10-05T11:57:39.904Z,49.36
2018-10-05T12:00:08.843Z,48.89
2018-10-05T12:02:37.947Z,49.20
2018-10-05T12:05:06.651Z,48.92
2018-10-05T12:07:35.193Z,50.33
2018-10-05T12:10:04.306Z,49.79
2018-10-05T12:12:33.046Z,48.96
2018-10-05T12:15:02.245Z,48.77
2018-10-05T12:17:31.019Z,48.92
2018-10-05T12:19:59.757Z,48.21
2018-10-05T12:22:28.399Z,47.98
2018-10-05T12:24:57.312Z,47.08
2018-10-05T12:27:26.042Z,46.85
2018-10-05T12:29:54.851Z,48.07
2018-10-05T12:32:23.723Z,48.13
2018-10-05T12:34:52.451Z,49.05
2018-10-05T12:37:21.186Z,46.57
2018-10-05T12:39:49.825Z,47.17
2018-10-05T12:42:18.718Z,46.76
2018-10-05T12:44:47.641Z,46.99
2018-10-05T12:47:16.351Z,46.96
2018-10-05T12:49:45.076Z,46.71
2018-10-05T12:52:14.019Z,46.22
2018-10-05T12:54:42.684Z,45.38
2018-10-05T12:57:11.583Z,45.91
2018-10-05T12:59:40.234Z,45.22
2018-10-05T13:02:08.899Z,46.31
2018-10-05T13:04:37.659Z,46.36
2018-10-05T13:07:06.462Z,45.99
2018-10-05T13:09:35.404Z,44.75
2018-10-05T13:12:04.091Z,45.64
2018-10-05T13:14:32.879Z,45.67
2018-10-05T13:17:02.607Z,45.32
2018-10-05T13:19:31.435Z,45.30
2018-10-05T13:22:00.386Z,44.83
2018-10-05T13:24:29.676Z,46.04
2018-10-05T13:26:59.208Z,46.29
2018-10-05T13:29:28.036Z,45.08
2018-10-05T13:31:56.782Z,45.76
2018-10-05T13:34:25.451Z,45.83
2018-10-05T13:36:54.170Z,46.17
2018-10-05T13:39:22.946Z,46.45
2018-10-05T13:41:52.301Z,46.71
2018-10-05T13:44:20.929Z,47.65
2018-10-05T13:46:49.628Z,48.16
2018-10-05T13:49:18.347Z,47.28
2018-10-05T13:51:46.997Z,48.16
2018-10-05T13:54:16.710Z,48.54
2018-10-05T13:56:45.554Z,48.01
2018-10-05T13:59:14.431Z,48.11
2018-10-05T14:01:43.055Z,48.79
2018-10-05T14:04:11.841Z,50.11
2018-10-05T14:06:40.560Z,48.83
2018-10-05T14:09:10.916Z,48.99
2018-10-05T14:11:39.781Z,49.17
2018-10-05T14:14:08.546Z,48.74
2018-10-05T14:16:37.205Z,49.41
2018-10-05T14:19:05.996Z,48.20
2018-10-05T14:21:35.167Z,48.30
2018-10-05T14:24:04.692Z,48.68
2018-10-05T14:26:34.949Z,48.35
2018-10-05T14:29:04.122Z,48.59
2018-10-05T14:31:32.812Z,49.24
2018-10-05T14:34:02.610Z,49.20
2018-10-05T14:36:31.300Z,49.23
2018-10-05T14:38:59.994Z,50.80
2018-10-05T14:41:28.724Z,50.50
2018-10-05T14:43:57.583Z,50.19
2018-10-05T14:46:26.274Z,49.69
2018-10-05T14:48:54.994Z,50.92
2018-10-05T14:51:23.737Z,49.48
2018-10-05T14:53:52.437Z,50.05
2018-10-05T14:56:21.152Z,49.31
2018-10-05T14:58:49.906Z,50.00
2018-10-05T15:01:18.565Z,51.37
2018-10-05T15:03:47.284Z,51.17
2018-10-05T15:06:16.038Z,50.29
2018-10-05T15:08:44.647Z,50.90
2018-10-05T15:11:13.307Z,51.29
2018-10-05T15:13:41.913Z,51.98
2018-10-05T15:16:10.502Z,51.78
2018-10-05T15:18:39.171Z,51.22
2018-10-05T15:21:07.959Z,50.36
2018-10-05T15:23:36.708Z,51.08
2018-10-05T15:26:05.328Z,51.79
2018-10-05T15:28:33.927Z,52.07
2018-10-05T15:31:02.805Z,51.36
2018-10-05T15:33:31.401Z,51.34
2018-10-05T15:36:00.136Z,52.02
2018-10-05T15:38:28.768Z,52.11
2018-10-05T15:40:57.870Z,51.99
2018-10-05T15:43:26.760Z,51.77
2018-10-05T15:46:06.683Z,52.04
2018-10-05T15:48:35.765Z,51.25
2018-10-05T15:51:05.355Z,50.81
2018-10-05T15:53:34.500Z,52.00
2018-10-05T15:56:03.933Z,51.94
2018-10-05T15:58:32.647Z,52.08
2018-10-05T16:01:02.509Z,52.54
2018-10-05T16:03:31.239Z,52.11
2018-10-05T16:06:00.232Z,52.13
2018-10-05T16:08:29.026Z,52.11
2018-10-05T16:10:57.827Z,53.33
2018-10-05T16:13:26.585Z,53.20
2018-10-05T16:15:55.260Z,53.46
2018-10-05T16:18:24.095Z,53.16
2018-10-05T16:20:52.641Z,53.66
2018-10-05T16:23:21.252Z,53.98
2018-10-05T16:25:49.952Z,54.08
2018-10-05T16:28:18.893Z,54.46
2018-10-05T16:30:47.484Z,53.85
2018-10-05T16:33:16.102Z,54.08
2018-10-05T16:35:44.772Z,54.12
2018-10-05T16:38:13.310Z,55.28
2018-10-05T16:40:41.949Z,55.07
2018-10-05T16:43:10.638Z,55.02
2018-10-05T16:45:39.240Z,55.29
2018-10-05T16:48:07.914Z,55.53
2018-10-05T16:50:36.586Z,55.93
2018-10-05T16:53:05.226Z,55.39
2018-10-05T16:55:33.926Z,56.42
2018-10-05T16:58:03.312Z,55.79
2018-10-05T17:00:31.986Z,55.44
2018-10-05T17:03:00.653Z,56.29
2018-10-05T17:05:29.320Z,55.80
2018-10-05T17:07:58.569Z,56.22
2018-10-05T17:10:27.411Z,56.24
2018-10-05T17:12:56.137Z,56.46
2018-10-05T17:15:24.847Z,57.28
2018-10-05T17:17:53.468Z,56.84
2018-10-05T17:20:22.201Z,57.14
2018-10-05T17:22:50.904Z,57.85
2018-10-05T17:25:19.596Z,58.22
2018-10-05T17:27:48.282Z,57.71
2018-10-05T17:30:16.932Z,57.40
2018-10-05T17:32:45.593Z,57.48
2018-10-05T17:35:14.212Z,57.82
2018-10-05T17:37:42.885Z,57.48
2018-10-05T17:40:11.418Z,58.07
2018-10-05T17:42:40.082Z,58.08
2018-10-05T17:45:08.810Z,58.22
2018-10-05T17:47:37.476Z,58.58
2018-10-05T17:50:06.635Z,58.13
2018-10-05T17:52:35.361Z,59.04
2018-10-05T17:55:04.101Z,59.34
2018-10-05T17:57:32.741Z,59.08
2018-10-05T18:00:01.614Z,59.51
2018-10-05T18:02:30.388Z,59.69
2018-10-05T18:04:59.175Z,59.38
2018-10-05T18:07:27.812Z,59.41
2018-10-05T18:09:56.632Z,60.15
2018-10-05T18:12:25.310Z,59.63
2018-10-05T18:14:54.044Z,60.36
2018-10-05T18:17:22.661Z,60.08
2018-10-05T18:19:51.342Z,60.23
2018-10-05T18:22:20.045Z,60.36
2018-10-05T18:24:48.852Z,60.17
2018-10-05T18:27:17.631Z,60.47
2018-10-05T18:29:46.433Z,60.89
2018-10-05T18:32:15.151Z,60.50
2018-10-05T18:34:43.821Z,60.89
2018-10-05T18:37:12.465Z,61.75
2018-10-05T18:39:41.174Z,61.13
2018-10-05T18:42:09.990Z,61.42
2018-10-05T18:44:38.612Z,61.42
2018-10-05T18:47:07.487Z,61.64
2018-10-05T18:49:36.242Z,62.57
2018-10-05T18:52:05.067Z,62.59
2018-10-05T18:54:33.689Z,62.79
2018-10-05T18:57:16.729Z,62.50
2018-10-05T18:59:45.558Z,62.97
2018-10-05T19:02:15.223Z,62.98
2018-10-05T19:04:44.293Z,63.57
2018-10-05T19:07:13.133Z,63.37
2018-10-05T19:12:24.297Z,63.06
2018-10-05T19:14:53.211Z,63.15
2018-10-05T19:17:22.133Z,63.03
2018-10-05T19:19:51.032Z,62.66
2018-10-05T19:22:19.689Z,62.80
2018-10-05T19:24:48.926Z,62.61
2018-10-05T19:27:17.667Z,62.41
2018-10-05T19:29:46.324Z,62.59
2018-10-05T19:32:15.103Z,62.52
2018-10-05T19:34:43.725Z,62.35
2018-10-05T19:37:12.430Z,62.33
2018-10-05T19:39:41.206Z,62.55
2018-10-05T19:42:10.032Z,62.13
2018-10-05T19:44:38.697Z,61.93
2018-10-05T19:47:07.783Z,62.28
2018-10-05T19:49:36.436Z,61.92
2018-10-05T19:52:05.169Z,61.37
2018-10-05T19:54:33.954Z,61.89
2018-10-05T19:57:03.579Z,61.31
2018-10-05T19:59:32.356Z,61.74
2018-10-05T20:02:02.650Z,61.85
2018-10-05T20:04:31.361Z,61.97
2018-10-05T20:07:01.092Z,61.91
2018-10-05T20:09:29.804Z,62.23
2018-10-05T20:11:58.460Z,62.49
2018-10-05T20:14:27.147Z,62.07
2018-10-05T20:16:55.943Z,61.79
2018-10-05T20:19:24.652Z,62.47
2018-10-05T20:21:53.874Z,62.14
2018-10-05T20:24:22.683Z,62.31
2018-10-05T20:26:51.335Z,62.05
2018-10-05T20:29:23.807Z,62.27
2018-10-05T20:31:52.826Z,61.99
2018-10-05T20:34:21.711Z,61.89
2018-10-05T20:36:50.652Z,62.71
2018-10-05T20:39:19.124Z,62.47
2018-10-05T20:41:48.018Z,62.98
2018-10-05T20:44:16.808Z,63.13
2018-10-05T20:46:45.523Z,63.16
2018-10-05T20:49:14.195Z,63.39
2018-10-05T20:51:42.974Z,63.55
2018-10-05T20:54:11.602Z,63.85
2018-10-05T20:56:40.368Z,63.87
2018-10-05T20:59:08.947Z,64.12
2018-10-05T21:01:37.655Z,63.94
2018-10-05T21:04:06.481Z,63.79
2018-10-05T21:06:35.025Z,63.56
2018-10-05T21:09:04.218Z,63.78
2018-10-05T21:11:32.877Z,63.37
2018-10-05T21:14:01.592Z,63.61
2018-10-05T21:16:30.624Z,63.46
2018-10-05T21:19:00.214Z,63.25
2018-10-05T21:21:28.952Z,63.71
2018-10-05T21:23:57.735Z,63.78
2018-10-05T21:26:26.855Z,63.59
2018-10-05T21:28:55.533Z,63.47
2018-10-05T21:31:24.264Z,63.52
2018-10-05T21:33:53.327Z,63.85
2018-10-05T21:36:22.057Z,63.60
2018-10-05T21:38:50.842Z,63.67
2018-10-05T21:41:19.609Z,63.63
2018-10-05T21:43:48.364Z,63.46
2018-10-05T21:46:17.657Z,63.81
2018-10-05T21:48:46.368Z,63.54
2018-10-05T21:51:15.052Z,63.37
2018-10-05T21:53:43.848Z,63.64
2018-10-05T21:56:12.605Z,63.74
2018-10-05T21:58:41.154Z,63.93
2018-10-05T22:01:09.864Z,63.75
2018-10-05T22:03:38.455Z,63.50
2018-10-05T22:06:07.187Z,63.30
2018-10-05T22:08:35.742Z,63.48
2018-10-05T22:11:04.435Z,63.54
2018-10-05T22:13:33.324Z,63.47
2018-10-05T22:16:02.648Z,63.48
2018-10-05T22:18:31.427Z,63.57
2018-10-05T22:21:00.307Z,64.32
2018-10-05T22:23:28.983Z,63.70
2018-10-05T22:25:57.728Z,63.64
2018-10-05T22:28:26.534Z,64.28
2018-10-05T22:30:55.193Z,64.11
2018-10-05T22:33:23.817Z,64.37
2018-10-05T22:35:52.445Z,64.46
2018-10-05T22:38:21.258Z,64.54
2018-10-05T22:40:49.849Z,64.29
2018-10-05T22:43:18.674Z,64.46
2018-10-05T22:45:47.368Z,64.26
2018-10-05T22:48:16.007Z,64.68
2018-10-05T22:50:44.695Z,64.74
2018-10-05T22:53:13.299Z,64.85
2018-10-05T22:55:42.102Z,64.73
2018-10-05T22:58:10.814Z,64.25
2018-10-05T23:00:39.505Z,64.89
2018-10-05T23:03:08.275Z,65.04
2018-10-05T23:05:36.995Z,65.16
2018-10-05T23:08:05.751Z,64.68
2018-10-05T23:10:34.361Z,65.24
2018-10-05T23:13:03.373Z,64.94
2018-10-05T23:15:32.147Z,64.93
2018-10-05T23:18:00.793Z,65.19
2018-10-05T23:20:29.698Z,64.76
2018-10-05T23:22:58.681Z,64.56
2018-10-05T23:25:27.464Z,64.47
2018-10-05T23:27:56.107Z,64.31
2018-10-05T23:30:24.805Z,64.10
2018-10-05T23:32:53.564Z,64.10
2018-10-05T23:35:22.362Z,63.84
2018-10-05T23:37:51.051Z,63.91
2018-10-05T23:40:19.659Z,64.13
2018-10-05T23:42:48.241Z,64.30
2018-10-05T23:45:17.104Z,64.70
2018-10-05T23:47:45.759Z,64.88
2018-10-05T23:50:14.663Z,65.13
2018-10-05T23:52:44.849Z,65.25
2018-10-05T23:55:13.512Z,65.81
2018-10-05T23:57:42.650Z,66.01
